sensor_id;sensor_type;location;lat;lon;timestamp;pressure;altitude;pressure_sealevel;temperature;humidity
71621;BME280;59471;42.254;23.102;2023-04-07T00:00:24;95698.09;;;3.24;53.53
71621;BME280;59471;42.254;23.102;2023-04-07T00:02:51;95691.81;;;3.37;52.79
71621;BME280;59471;42.254;23.102;2023-04-07T00:05:16;95690.63;;;3.31;52.69
71621;BME280;59471;42.254;23.102;2023-04-07T00:07:42;95691.00;;;2.97;54.80
71621;BME280;59471;42.254;23.102;2023-04-07T00:10:08;95694.53;;;2.96;54.44
71621;BME280;59471;42.254;23.102;2023-04-07T00:12:33;95697.97;;;3.16;52.66
71621;BME280;59471;42.254;23.102;2023-04-07T00:15:00;95692.09;;;3.14;51.02
71621;BME280;59471;42.254;23.102;2023-04-07T00:17:25;95687.19;;;3.21;51.42
71621;BME280;59471;42.254;23.102;2023-04-07T00:19:51;95696.34;;;3.15;52.31
71621;BME280;59471;42.254;23.102;2023-04-07T00:22:16;95691.00;;;3.27;51.87
71621;BME280;59471;42.254;23.102;2023-04-07T00:24:42;95690.84;;;3.09;50.58
71621;BME280;59471;42.254;23.102;2023-04-07T00:27:07;95700.91;;;2.92;52.52
71621;BME280;59471;42.254;23.102;2023-04-07T00:29:33;95703.09;;;2.87;53.45
71621;BME280;59471;42.254;23.102;2023-04-07T00:31:59;95690.94;;;2.68;55.21
71621;BME280;59471;42.254;23.102;2023-04-07T00:34:24;95693.03;;;3.04;54.74
71621;BME280;59471;42.254;23.102;2023-04-07T00:36:50;95701.91;;;3.30;55.84
71621;BME280;59471;42.254;23.102;2023-04-07T00:39:19;95700.28;;;3.29;55.38
71621;BME280;59471;42.254;23.102;2023-04-07T00:41:45;95695.09;;;3.29;55.73
71621;BME280;59471;42.254;23.102;2023-04-07T00:44:12;95694.97;;;3.50;55.89
71621;BME280;59471;42.254;23.102;2023-04-07T00:46:38;95694.84;;;3.42;57.12
71621;BME280;59471;42.254;23.102;2023-04-07T00:49:04;95703.00;;;3.28;57.90
71621;BME280;59471;42.254;23.102;2023-04-07T00:51:30;95704.31;;;3.02;58.23
71621;BME280;59471;42.254;23.102;2023-04-07T00:53:56;95700.28;;;3.10;58.82
71621;BME280;59471;42.254;23.102;2023-04-07T00:56:22;95701.75;;;3.02;55.84
71621;BME280;59471;42.254;23.102;2023-04-07T00:58:47;95697.25;;;3.05;56.18
71621;BME280;59471;42.254;23.102;2023-04-07T01:01:18;95704.88;;;2.96;55.83
71621;BME280;59471;42.254;23.102;2023-04-07T01:04:08;95703.13;;;3.16;56.45
71621;BME280;59471;42.254;23.102;2023-04-07T01:07:10;95698.50;;;3.39;56.66
71621;BME280;59471;42.254;23.102;2023-04-07T01:09:45;95705.31;;;3.40;56.46
71621;BME280;59471;42.254;23.102;2023-04-07T01:15:20;95695.38;;;3.26;58.78
71621;BME280;59471;42.254;23.102;2023-04-07T01:17:52;95699.47;;;3.38;58.35
71621;BME280;59471;42.254;23.102;2023-04-07T01:20:23;95705.72;;;3.26;58.69
71621;BME280;59471;42.254;23.102;2023-04-07T01:22:56;95702.19;;;3.17;59.62
71621;BME280;59471;42.254;23.102;2023-04-07T01:31:11;95700.81;;;3.42;58.37
71621;BME280;59471;42.254;23.102;2023-04-07T01:33:37;95694.84;;;3.32;58.77
71621;BME280;59471;42.254;23.102;2023-04-07T01:36:05;95699.75;;;3.35;59.80
71621;BME280;59471;42.254;23.102;2023-04-07T01:38:32;95694.56;;;3.35;58.55
71621;BME280;59471;42.254;23.102;2023-04-07T01:40:59;95700.28;;;3.10;59.51
71621;BME280;59471;42.254;23.102;2023-04-07T01:43:26;95696.56;;;3.02;59.59
71621;BME280;59471;42.254;23.102;2023-04-07T01:45:53;95703.25;;;3.15;59.47
71621;BME280;59471;42.254;23.102;2023-04-07T01:48:20;95701.44;;;2.86;60.91
71621;BME280;59471;42.254;23.102;2023-04-07T01:50:46;95696.81;;;2.90;60.94
71621;BME280;59471;42.254;23.102;2023-04-07T01:53:14;95696.81;;;2.80;62.10
71621;BME280;59471;42.254;23.102;2023-04-07T01:55:41;95693.84;;;2.85;62.20
71621;BME280;59471;42.254;23.102;2023-04-07T01:58:08;95692.34;;;3.11;61.20
71621;BME280;59471;42.254;23.102;2023-04-07T02:00:34;95691.69;;;3.19;62.03
71621;BME280;59471;42.254;23.102;2023-04-07T02:03:13;95693.44;;;3.18;62.12
71621;BME280;59471;42.254;23.102;2023-04-07T02:05:45;95692.91;;;3.15;61.82
71621;BME280;59471;42.254;23.102;2023-04-07T02:08:13;95692.38;;;2.51;63.00
71621;BME280;59471;42.254;23.102;2023-04-07T02:10:41;95691.22;;;2.75;61.86
71621;BME280;59471;42.254;23.102;2023-04-07T02:13:12;95691.34;;;2.73;62.43
71621;BME280;59471;42.254;23.102;2023-04-07T02:15:41;95693.41;;;2.79;63.01
71621;BME280;59471;42.254;23.102;2023-04-07T02:18:09;95692.63;;;2.98;61.78
71621;BME280;59471;42.254;23.102;2023-04-07T02:20:38;95696.72;;;3.01;61.82
71621;BME280;59471;42.254;23.102;2023-04-07T02:23:06;95686.09;;;2.94;62.19
71621;BME280;59471;42.254;23.102;2023-04-07T02:25:33;95685.00;;;2.87;62.00
71621;BME280;59471;42.254;23.102;2023-04-07T02:27:59;95683.88;;;2.80;62.49
71621;BME280;59471;42.254;23.102;2023-04-07T02:30:26;95679.75;;;2.58;62.75
71621;BME280;59471;42.254;23.102;2023-04-07T02:32:53;95681.97;;;2.72;63.44
71621;BME280;59471;42.254;23.102;2023-04-07T02:35:18;95680.09;;;2.84;63.54
71621;BME280;59471;42.254;23.102;2023-04-07T02:37:45;95682.50;;;2.76;63.63
71621;BME280;59471;42.254;23.102;2023-04-07T02:40:11;95679.22;;;2.74;63.80
71621;BME280;59471;42.254;23.102;2023-04-07T02:42:37;95684.84;;;2.79;63.91
71621;BME280;59471;42.254;23.102;2023-04-07T02:45:04;95679.44;;;2.51;64.96
71621;BME280;59471;42.254;23.102;2023-04-07T02:47:32;95687.31;;;2.40;65.55
71621;BME280;59471;42.254;23.102;2023-04-07T02:49:58;95682.09;;;2.21;66.29
71621;BME280;59471;42.254;23.102;2023-04-07T02:52:24;95682.13;;;2.00;67.82
71621;BME280;59471;42.254;23.102;2023-04-07T02:54:49;95694.94;;;1.80;66.85
71621;BME280;59471;42.254;23.102;2023-04-07T02:57:15;95688.28;;;2.08;67.46
71621;BME280;59471;42.254;23.102;2023-04-07T02:59:40;95691.63;;;2.30;66.65
71621;BME280;59471;42.254;23.102;2023-04-07T03:02:06;95691.09;;;2.36;66.76
71621;BME280;59471;42.254;23.102;2023-04-07T03:04:32;95691.63;;;2.30;66.51
71621;BME280;59471;42.254;23.102;2023-04-07T03:06:58;95694.47;;;1.96;68.53
71621;BME280;59471;42.254;23.102;2023-04-07T03:09:23;95690.22;;;1.95;68.28
71621;BME280;59471;42.254;23.102;2023-04-07T03:11:49;95691.22;;;1.52;69.39
71621;BME280;59471;42.254;23.102;2023-04-07T03:14:15;95694.88;;;1.71;69.25
71621;BME280;59471;42.254;23.102;2023-04-07T03:16:41;95686.03;;;1.94;68.19
71621;BME280;59471;42.254;23.102;2023-04-07T03:19:07;95691.53;;;2.11;67.76
71621;BME280;59471;42.254;23.102;2023-04-07T03:21:34;95688.63;;;2.25;66.87
71621;BME280;59471;42.254;23.102;2023-04-07T03:24:01;95687.50;;;2.18;66.23
71621;BME280;59471;42.254;23.102;2023-04-07T03:26:26;95688.69;;;1.83;67.39
71621;BME280;59471;42.254;23.102;2023-04-07T03:28:52;95689.44;;;1.74;67.94
71621;BME280;59471;42.254;23.102;2023-04-07T03:31:17;95692.28;;;1.71;68.65
71621;BME280;59471;42.254;23.102;2023-04-07T03:33:43;95698.69;;;1.55;69.43
71621;BME280;59471;42.254;23.102;2023-04-07T03:36:08;95693.47;;;1.67;69.12
71621;BME280;59471;42.254;23.102;2023-04-07T03:38:34;95691.13;;;1.84;68.59
71621;BME280;59471;42.254;23.102;2023-04-07T03:41:00;95697.56;;;1.69;68.16
71621;BME280;59471;42.254;23.102;2023-04-07T03:43:25;95693.59;;;1.86;67.82
71621;BME280;59471;42.254;23.102;2023-04-07T03:45:54;95700.84;;;1.71;67.03
71621;BME280;59471;42.254;23.102;2023-04-07T03:48:20;95700.78;;;1.61;67.47
71621;BME280;59471;42.254;23.102;2023-04-07T03:50:45;95712.50;;;1.66;68.18
71621;BME280;59471;42.254;23.102;2023-04-07T03:53:11;95713.00;;;1.59;68.47
71621;BME280;59471;42.254;23.102;2023-04-07T03:55:41;95714.88;;;1.57;68.38
71621;BME280;59471;42.254;23.102;2023-04-07T03:58:07;95716.59;;;1.68;67.47
71621;BME280;59471;42.254;23.102;2023-04-07T04:00:33;95714.81;;;1.90;67.82
71621;BME280;59471;42.254;23.102;2023-04-07T04:02:59;95716.66;;;1.78;68.02
71621;BME280;59471;42.254;23.102;2023-04-07T04:05:25;95729.50;;;1.68;68.62
71621;BME280;59471;42.254;23.102;2023-04-07T04:07:51;95720.75;;;1.80;66.91
71621;BME280;59471;42.254;23.102;2023-04-07T04:10:17;95728.81;;;1.87;66.03
71621;BME280;59471;42.254;23.102;2023-04-07T04:12:44;95730.00;;;1.83;66.98
71621;BME280;59471;42.254;23.102;2023-04-07T04:15:10;95732.25;;;1.97;66.90
71621;BME280;59471;42.254;23.102;2023-04-07T04:17:36;95732.34;;;1.86;67.63
71621;BME280;59471;42.254;23.102;2023-04-07T04:20:02;95732.06;;;1.89;67.69
71621;BME280;59471;42.254;23.102;2023-04-07T04:22:28;95734.91;;;1.86;68.54
71621;BME280;59471;42.254;23.102;2023-04-07T04:24:53;95750.13;;;1.89;68.62
71621;BME280;59471;42.254;23.102;2023-04-07T04:27:19;95747.00;;;2.06;67.10
71621;BME280;59471;42.254;23.102;2023-04-07T04:29:45;95752.16;;;2.06;67.48
71621;BME280;59471;42.254;23.102;2023-04-07T04:32:11;95752.47;;;1.71;67.90
71621;BME280;59471;42.254;23.102;2023-04-07T04:34:38;95749.25;;;1.79;68.44
71621;BME280;59471;42.254;23.102;2023-04-07T04:37:03;95759.19;;;1.62;68.36
71621;BME280;59471;42.254;23.102;2023-04-07T04:39:30;95755.03;;;1.18;70.46
71621;BME280;59471;42.254;23.102;2023-04-07T04:41:55;95759.44;;;1.59;70.60
71621;BME280;59471;42.254;23.102;2023-04-07T04:44:21;95759.41;;;1.71;68.87
71621;BME280;59471;42.254;23.102;2023-04-07T04:46:47;95758.22;;;1.75;67.90
71621;BME280;59471;42.254;23.102;2023-04-07T04:49:13;95762.97;;;1.58;68.44
71621;BME280;59471;42.254;23.102;2023-04-07T04:51:39;95760.28;;;1.16;68.48
71621;BME280;59471;42.254;23.102;2023-04-07T04:54:06;95752.38;;;1.41;68.09
71621;BME280;59471;42.254;23.102;2023-04-07T04:56:32;95762.38;;;1.23;67.84
71621;BME280;59471;42.254;23.102;2023-04-07T04:58:57;95764.22;;;1.43;68.51
71621;BME280;59471;42.254;23.102;2023-04-07T05:01:23;95759.63;;;1.14;67.81
71621;BME280;59471;42.254;23.102;2023-04-07T05:03:49;95762.81;;;1.39;67.69
71621;BME280;59471;42.254;23.102;2023-04-07T05:06:14;95772.00;;;1.64;67.71
71621;BME280;59471;42.254;23.102;2023-04-07T05:08:40;95780.50;;;1.76;67.83
71621;BME280;59471;42.254;23.102;2023-04-07T05:11:05;95762.25;;;1.68;67.09
71621;BME280;59471;42.254;23.102;2023-04-07T05:13:31;95770.66;;;1.70;66.25
71621;BME280;59471;42.254;23.102;2023-04-07T05:15:56;95767.75;;;1.42;67.35
71621;BME280;59471;42.254;23.102;2023-04-07T05:18:22;95773.78;;;1.52;67.24
71621;BME280;59471;42.254;23.102;2023-04-07T05:20:48;95776.88;;;1.46;67.14
71621;BME280;59471;42.254;23.102;2023-04-07T05:23:14;95770.44;;;1.41;67.15
71621;BME280;59471;42.254;23.102;2023-04-07T05:25:40;95768.00;;;1.39;68.36
71621;BME280;59471;42.254;23.102;2023-04-07T05:28:05;95782.19;;;1.66;67.28
71621;BME280;59471;42.254;23.102;2023-04-07T05:30:31;95777.63;;;1.90;66.87
71621;BME280;59471;42.254;23.102;2023-04-07T05:32:56;95777.97;;;1.65;67.16
71621;BME280;59471;42.254;23.102;2023-04-07T05:35:22;95780.75;;;1.73;65.77
71621;BME280;59471;42.254;23.102;2023-04-07T05:37:48;95769.50;;;1.74;66.13
71621;BME280;59471;42.254;23.102;2023-04-07T05:40:14;95770.44;;;1.94;65.20
71621;BME280;59471;42.254;23.102;2023-04-07T05:42:40;95776.31;;;1.96;64.80
71621;BME280;59471;42.254;23.102;2023-04-07T05:45:06;95778.81;;;2.07;64.62
71621;BME280;59471;42.254;23.102;2023-04-07T05:47:34;95780.19;;;2.11;64.10
71621;BME280;59471;42.254;23.102;2023-04-07T05:50:00;95775.47;;;2.16;64.62
71621;BME280;59471;42.254;23.102;2023-04-07T05:52:25;95770.50;;;2.24;64.95
71621;BME280;59471;42.254;23.102;2023-04-07T05:54:51;95769.38;;;1.96;64.76
71621;BME280;59471;42.254;23.102;2023-04-07T05:57:16;95781.72;;;1.60;65.24
71621;BME280;59471;42.254;23.102;2023-04-07T05:59:42;95779.44;;;1.99;64.79
71621;BME280;59471;42.254;23.102;2023-04-07T06:02:07;95780.78;;;2.15;64.34
71621;BME280;59471;42.254;23.102;2023-04-07T06:04:33;95778.13;;;1.84;64.82
71621;BME280;59471;42.254;23.102;2023-04-07T06:07:00;95776.22;;;2.28;64.41
71621;BME280;59471;42.254;23.102;2023-04-07T06:09:29;95785.94;;;2.45;64.33
71621;BME280;59471;42.254;23.102;2023-04-07T06:11:54;95768.75;;;2.55;63.18
71621;BME280;59471;42.254;23.102;2023-04-07T06:14:20;95773.78;;;2.36;62.83
71621;BME280;59471;42.254;23.102;2023-04-07T06:16:46;95772.69;;;2.60;63.54
71621;BME280;59471;42.254;23.102;2023-04-07T06:19:11;95765.97;;;2.47;62.70
71621;BME280;59471;42.254;23.102;2023-04-07T06:21:37;95770.59;;;2.44;63.70
71621;BME280;59471;42.254;23.102;2023-04-07T06:24:04;95767.34;;;2.51;63.46
71621;BME280;59471;42.254;23.102;2023-04-07T06:26:30;95770.69;;;2.73;62.84
71621;BME280;59471;42.254;23.102;2023-04-07T06:28:57;95757.28;;;2.98;62.31
71621;BME280;59471;42.254;23.102;2023-04-07T06:31:23;95762.91;;;3.04;61.18
71621;BME280;59471;42.254;23.102;2023-04-07T06:33:49;95759.06;;;2.98;62.48
71621;BME280;59471;42.254;23.102;2023-04-07T06:36:15;95756.41;;;3.19;61.45
71621;BME280;59471;42.254;23.102;2023-04-07T06:38:40;95758.31;;;3.36;61.28
71621;BME280;59471;42.254;23.102;2023-04-07T06:41:06;95756.41;;;3.58;60.61
71621;BME280;59471;42.254;23.102;2023-04-07T06:43:37;95758.03;;;3.78;59.84
71621;BME280;59471;42.254;23.102;2023-04-07T06:46:02;95760.34;;;3.81;59.07
71621;BME280;59471;42.254;23.102;2023-04-07T06:48:28;95758.16;;;4.06;59.18
71621;BME280;59471;42.254;23.102;2023-04-07T06:50:53;95754.34;;;4.00;58.89
71621;BME280;59471;42.254;23.102;2023-04-07T06:53:19;95760.16;;;4.22;58.61
71621;BME280;59471;42.254;23.102;2023-04-07T06:55:45;95757.34;;;3.95;56.69
71621;BME280;59471;42.254;23.102;2023-04-07T06:58:10;95759.00;;;3.87;57.23
71621;BME280;59471;42.254;23.102;2023-04-07T07:00:36;95761.81;;;4.13;55.81
71621;BME280;59471;42.254;23.102;2023-04-07T07:03:02;95760.91;;;4.51;53.83
71621;BME280;59471;42.254;23.102;2023-04-07T07:05:27;95762.81;;;4.86;50.35
71621;BME280;59471;42.254;23.102;2023-04-07T07:07:53;95765.31;;;5.06;52.04
71621;BME280;59471;42.254;23.102;2023-04-07T07:10:19;95764.09;;;5.28;51.15
71621;BME280;59471;42.254;23.102;2023-04-07T07:12:45;95767.78;;;4.98;50.52
71621;BME280;59471;42.254;23.102;2023-04-07T07:15:10;95763.72;;;4.68;49.80
71621;BME280;59471;42.254;23.102;2023-04-07T07:17:36;95770.31;;;4.90;50.93
71621;BME280;59471;42.254;23.102;2023-04-07T07:20:01;95768.06;;;5.22;48.17
71621;BME280;59471;42.254;23.102;2023-04-07T07:22:27;95769.50;;;5.34;45.53
71621;BME280;59471;42.254;23.102;2023-04-07T07:24:52;95771.34;;;5.42;46.78
71621;BME280;59471;42.254;23.102;2023-04-07T07:27:18;95775.31;;;5.64;48.62
71621;BME280;59471;42.254;23.102;2023-04-07T07:29:43;95773.16;;;5.95;47.60
71621;BME280;59471;42.254;23.102;2023-04-07T07:32:09;95767.72;;;6.24;47.86
71621;BME280;59471;42.254;23.102;2023-04-07T07:34:34;95768.88;;;6.30;45.56
71621;BME280;59471;42.254;23.102;2023-04-07T07:37:00;95765.63;;;6.54;47.07
71621;BME280;59471;42.254;23.102;2023-04-07T07:39:26;95763.09;;;6.70;46.90
71621;BME280;59471;42.254;23.102;2023-04-07T07:41:51;95770.03;;;6.88;45.44
71621;BME280;59471;42.254;23.102;2023-04-07T07:44:17;95767.75;;;6.93;45.30
71621;BME280;59471;42.254;23.102;2023-04-07T07:46:44;95766.13;;;6.92;45.71
71621;BME280;59471;42.254;23.102;2023-04-07T07:49:10;95771.03;;;6.95;45.20
71621;BME280;59471;42.254;23.102;2023-04-07T07:51:36;95762.63;;;7.09;46.02
71621;BME280;59471;42.254;23.102;2023-04-07T07:54:02;95766.09;;;7.34;44.57
71621;BME280;59471;42.254;23.102;2023-04-07T07:56:27;95771.53;;;6.99;41.94
71621;BME280;59471;42.254;23.102;2023-04-07T07:58:53;95773.91;;;6.49;43.96
71621;BME280;59471;42.254;23.102;2023-04-07T08:01:19;95776.41;;;6.59;44.91
71621;BME280;59471;42.254;23.102;2023-04-07T08:03:44;95774.31;;;6.97;44.80
71621;BME280;59471;42.254;23.102;2023-04-07T08:06:10;95772.78;;;7.29;43.97
71621;BME280;59471;42.254;23.102;2023-04-07T08:08:36;95776.16;;;7.21;44.93
71621;BME280;59471;42.254;23.102;2023-04-07T08:11:02;95767.44;;;7.38;43.96
71621;BME280;59471;42.254;23.102;2023-04-07T08:13:27;95770.75;;;7.57;43.88
71621;BME280;59471;42.254;23.102;2023-04-07T08:15:53;95769.16;;;7.13;42.68
71621;BME280;59471;42.254;23.102;2023-04-07T08:18:19;95765.25;;;7.17;44.80
71621;BME280;59471;42.254;23.102;2023-04-07T08:20:45;95765.66;;;7.55;44.93
71621;BME280;59471;42.254;23.102;2023-04-07T08:23:11;95765.66;;;7.55;43.59
71621;BME280;59471;42.254;23.102;2023-04-07T08:25:37;95765.56;;;7.98;44.00
71621;BME280;59471;42.254;23.102;2023-04-07T08:28:04;95761.75;;;7.51;41.20
71621;BME280;59471;42.254;23.102;2023-04-07T08:30:30;95764.97;;;7.29;41.26
71621;BME280;59471;42.254;23.102;2023-04-07T08:32:56;95761.97;;;7.15;41.13
71621;BME280;59471;42.254;23.102;2023-04-07T08:35:21;95769.59;;;7.68;41.10
71621;BME280;59471;42.254;23.102;2023-04-07T08:37:47;95761.63;;;8.10;41.54
71621;BME280;59471;42.254;23.102;2023-04-07T08:40:14;95762.13;;;7.97;41.38
71621;BME280;59471;42.254;23.102;2023-04-07T08:42:42;95754.16;;;7.99;43.44
71621;BME280;59471;42.254;23.102;2023-04-07T08:45:16;95747.63;;;8.03;40.52
71621;BME280;59471;42.254;23.102;2023-04-07T08:47:43;95745.00;;;8.27;42.29
71621;BME280;59471;42.254;23.102;2023-04-07T08:50:16;95734.97;;;8.64;41.10
71621;BME280;59471;42.254;23.102;2023-04-07T08:52:49;95744.13;;;8.68;41.73
71621;BME280;59471;42.254;23.102;2023-04-07T08:55:17;95737.94;;;8.61;40.07
71621;BME280;59471;42.254;23.102;2023-04-07T08:57:43;95740.53;;;8.69;40.67
71621;BME280;59471;42.254;23.102;2023-04-07T09:00:09;95745.75;;;8.69;41.66
71621;BME280;59471;42.254;23.102;2023-04-07T09:02:40;95743.06;;;8.93;40.82
71621;BME280;59471;42.254;23.102;2023-04-07T09:05:11;95734.50;;;9.08;41.14
71621;BME280;59471;42.254;23.102;2023-04-07T09:07:38;95736.81;;;9.02;40.26
71621;BME280;59471;42.254;23.102;2023-04-07T09:10:05;95726.72;;;8.99;38.20
71621;BME280;59471;42.254;23.102;2023-04-07T09:12:32;95732.28;;;9.27;39.36
71621;BME280;59471;42.254;23.102;2023-04-07T09:14:58;95736.53;;;9.51;40.31
71621;BME280;59471;42.254;23.102;2023-04-07T09:17:28;95739.03;;;9.45;40.70
71621;BME280;59471;42.254;23.102;2023-04-07T09:19:58;95739.22;;;9.43;39.10
71621;BME280;59471;42.254;23.102;2023-04-07T09:22:42;95736.44;;;9.45;37.71
71621;BME280;59471;42.254;23.102;2023-04-07T09:25:12;95734.94;;;9.96;39.77
71621;BME280;59471;42.254;23.102;2023-04-07T09:27:40;95729.66;;;10.19;40.75
71621;BME280;59471;42.254;23.102;2023-04-07T09:30:13;95724.50;;;10.34;40.09
71621;BME280;59471;42.254;23.102;2023-04-07T09:32:39;95729.25;;;9.70;37.78
71621;BME280;59471;42.254;23.102;2023-04-07T09:35:06;95720.59;;;8.76;36.94
71621;BME280;59471;42.254;23.102;2023-04-07T09:37:32;95713.91;;;9.13;41.15
71621;BME280;59471;42.254;23.102;2023-04-07T09:39:57;95714.69;;;8.82;38.89
71621;BME280;59471;42.254;23.102;2023-04-07T09:42:24;95715.53;;;9.14;39.93
71621;BME280;59471;42.254;23.102;2023-04-07T09:44:50;95715.38;;;9.15;37.88
71621;BME280;59471;42.254;23.102;2023-04-07T09:47:16;95722.97;;;9.33;38.82
71621;BME280;59471;42.254;23.102;2023-04-07T09:49:53;95714.56;;;10.07;39.60
71621;BME280;59471;42.254;23.102;2023-04-07T09:52:52;95723.31;;;9.53;38.66
71621;BME280;59471;42.254;23.102;2023-04-07T09:55:21;95719.53;;;9.56;39.10
71621;BME280;59471;42.254;23.102;2023-04-07T09:57:49;95717.50;;;9.66;36.47
71621;BME280;59471;42.254;23.102;2023-04-07T10:00:15;95709.09;;;9.56;35.29
71621;BME280;59471;42.254;23.102;2023-04-07T10:02:42;95721.41;;;9.70;36.86
71621;BME280;59471;42.254;23.102;2023-04-07T10:05:09;95718.38;;;9.81;37.44
71621;BME280;59471;42.254;23.102;2023-04-07T10:07:34;95721.97;;;10.41;36.92
71621;BME280;59471;42.254;23.102;2023-04-07T10:10:01;95722.16;;;10.84;37.81
71621;BME280;59471;42.254;23.102;2023-04-07T10:12:27;95714.44;;;11.12;37.31
71621;BME280;59471;42.254;23.102;2023-04-07T10:14:55;95719.00;;;10.88;36.77
71621;BME280;59471;42.254;23.102;2023-04-07T10:17:23;95722.16;;;9.56;36.96
71621;BME280;59471;42.254;23.102;2023-04-07T10:19:49;95720.13;;;9.66;37.24
71621;BME280;59471;42.254;23.102;2023-04-07T10:22:15;95725.75;;;9.78;37.45
71621;BME280;59471;42.254;23.102;2023-04-07T10:27:34;95722.88;;;10.78;35.88
71621;BME280;59471;42.254;23.102;2023-04-07T10:30:04;95719.09;;;11.31;40.13
71621;BME280;59471;42.254;23.102;2023-04-07T10:32:45;95710.25;;;11.32;36.24
71621;BME280;59471;42.254;23.102;2023-04-07T10:35:14;95715.59;;;11.60;38.37
71621;BME280;59471;42.254;23.102;2023-04-07T10:37:40;95708.44;;;10.67;34.99
71621;BME280;59471;42.254;23.102;2023-04-07T10:42:43;95714.28;;;10.39;37.26
71621;BME280;59471;42.254;23.102;2023-04-07T10:45:09;95718.44;;;10.11;36.43
71621;BME280;59471;42.254;23.102;2023-04-07T10:50:27;95712.09;;;9.90;36.39
71621;BME280;59471;42.254;23.102;2023-04-07T10:53:10;95715.00;;;9.72;37.31
71621;BME280;59471;42.254;23.102;2023-04-07T10:55:41;95709.34;;;10.07;36.82
71621;BME280;59471;42.254;23.102;2023-04-07T11:03:24;95710.94;;;10.08;38.62
71621;BME280;59471;42.254;23.102;2023-04-07T11:05:50;95708.44;;;9.54;37.27
71621;BME280;59471;42.254;23.102;2023-04-07T11:08:46;95702.50;;;9.37;36.91
71621;BME280;59471;42.254;23.102;2023-04-07T11:11:15;95703.44;;;9.67;37.78
71621;BME280;59471;42.254;23.102;2023-04-07T11:16:18;95694.69;;;10.35;37.47
71621;BME280;59471;42.254;23.102;2023-04-07T11:18:45;95692.03;;;10.06;36.56
71621;BME280;59471;42.254;23.102;2023-04-07T11:21:18;95696.81;;;9.79;37.05
71621;BME280;59471;42.254;23.102;2023-04-07T11:23:45;95694.72;;;9.51;36.82
71621;BME280;59471;42.254;23.102;2023-04-07T11:26:13;95686.03;;;9.59;38.28
71621;BME280;59471;42.254;23.102;2023-04-07T11:28:53;95685.22;;;9.96;37.60
71621;BME280;59471;42.254;23.102;2023-04-07T11:31:23;95685.16;;;10.05;37.47
71621;BME280;59471;42.254;23.102;2023-04-07T11:33:54;95692.03;;;10.06;36.89
71621;BME280;59471;42.254;23.102;2023-04-07T11:39:00;95679.56;;;9.70;36.91
71621;BME280;59471;42.254;23.102;2023-04-07T11:41:28;95685.81;;;10.21;37.96
71621;BME280;59471;42.254;23.102;2023-04-07T11:44:06;95676.19;;;9.84;37.54
71621;BME280;59471;42.254;23.102;2023-04-07T11:46:34;95669.63;;;10.18;37.59
71621;BME280;59471;42.254;23.102;2023-04-07T11:49:11;95675.97;;;10.09;36.65
71621;BME280;59471;42.254;23.102;2023-04-07T11:51:38;95667.06;;;10.33;36.22
71621;BME280;59471;42.254;23.102;2023-04-07T11:54:04;95675.94;;;9.94;36.66
71621;BME280;59471;42.254;23.102;2023-04-07T11:56:40;95668.19;;;10.01;36.91
71621;BME280;59471;42.254;23.102;2023-04-07T11:59:07;95661.59;;;10.28;38.03
71621;BME280;59471;42.254;23.102;2023-04-07T12:01:40;95658.78;;;10.44;36.75
71621;BME280;59471;42.254;23.102;2023-04-07T12:04:05;95657.16;;;10.28;35.83
71621;BME280;59471;42.254;23.102;2023-04-07T12:06:34;95661.94;;;10.39;36.26
71621;BME280;59471;42.254;23.102;2023-04-07T12:09:03;95660.28;;;10.09;36.44
71621;BME280;59471;42.254;23.102;2023-04-07T12:11:30;95663.59;;;10.03;37.84
71621;BME280;59471;42.254;23.102;2023-04-07T12:13:57;95657.06;;;9.84;37.47
71621;BME280;59471;42.254;23.102;2023-04-07T12:16:23;95666.81;;;9.90;36.39
71621;BME280;59471;42.254;23.102;2023-04-07T12:18:49;95660.97;;;10.03;36.87
71621;BME280;59471;42.254;23.102;2023-04-07T12:21:18;95660.28;;;10.09;36.06
71621;BME280;59471;42.254;23.102;2023-04-07T12:23:45;95646.38;;;10.53;35.79
71621;BME280;59471;42.254;23.102;2023-04-07T12:26:12;95648.13;;;10.60;36.10
71621;BME280;59471;42.254;23.102;2023-04-07T12:28:38;95651.38;;;10.62;36.54
71621;BME280;59471;42.254;23.102;2023-04-07T12:31:04;95654.28;;;10.38;35.73
71621;BME280;59471;42.254;23.102;2023-04-07T12:33:30;95654.59;;;10.64;35.66
71621;BME280;59471;42.254;23.102;2023-04-07T12:35:56;95657.66;;;10.83;35.67
71621;BME280;59471;42.254;23.102;2023-04-07T12:38:22;95657.28;;;10.86;36.09
71621;BME280;59471;42.254;23.102;2023-04-07T12:40:48;95660.84;;;10.49;35.94
71621;BME280;59471;42.254;23.102;2023-04-07T12:43:14;95649.38;;;10.50;36.78
71621;BME280;59471;42.254;23.102;2023-04-07T12:45:39;95656.63;;;10.62;36.20
71621;BME280;59471;42.254;23.102;2023-04-07T12:48:05;95657.94;;;10.73;35.97
71621;BME280;59471;42.254;23.102;2023-04-07T12:50:30;95660.56;;;10.73;35.32
71621;BME280;59471;42.254;23.102;2023-04-07T12:52:56;95650.97;;;10.80;35.04
71621;BME280;59471;42.254;23.102;2023-04-07T12:55:24;95656.38;;;10.94;35.83
71621;BME280;59471;42.254;23.102;2023-04-07T12:57:49;95663.25;;;10.80;36.76
71621;BME280;59471;42.254;23.102;2023-04-07T13:00:15;95660.09;;;10.84;35.32
71621;BME280;59471;42.254;23.102;2023-04-07T13:02:41;95646.66;;;10.58;34.71
71621;BME280;59471;42.254;23.102;2023-04-07T13:05:08;95655.34;;;10.58;36.29
71621;BME280;59471;42.254;23.102;2023-04-07T13:07:33;95645.59;;;10.67;37.09
71621;BME280;59471;42.254;23.102;2023-04-07T13:10:01;95655.59;;;10.78;37.79
71621;BME280;59471;42.254;23.102;2023-04-07T13:12:27;95662.44;;;10.20;38.19
71621;BME280;59471;42.254;23.102;2023-04-07T13:14:52;95668.03;;;10.17;37.99
71621;BME280;59471;42.254;23.102;2023-04-07T13:17:18;95666.91;;;10.64;37.15
71621;BME280;59471;42.254;23.102;2023-04-07T13:19:44;95657.34;;;10.41;38.44
71621;BME280;59471;42.254;23.102;2023-04-07T13:22:11;95660.28;;;10.68;37.83
71621;BME280;59471;42.254;23.102;2023-04-07T13:24:38;95663.94;;;10.37;37.58